createdAt,value
2022-09-12T00:07:43.581Z,11.32
2022-09-12T00:17:50.725Z,11.24
2022-09-12T00:27:58.977Z,11.19
2022-09-12T00:38:06.219Z,11.14
2022-09-12T00:48:16.421Z,11.06
2022-09-12T00:58:27.467Z,10.96
2022-09-12T01:08:37.549Z,10.86
2022-09-12T01:18:54.805Z,10.79
2022-09-12T01:29:09.946Z,10.61
2022-09-12T01:39:22.544Z,10.41
2022-09-12T01:49:34.039Z,10.31
2022-09-12T01:59:42.434Z,10.21
2022-09-12T02:09:54.892Z,10.17
2022-09-12T02:20:02.531Z,10.13
2022-09-12T02:30:14.508Z,10.05
2022-09-12T02:40:19.254Z,9.95
2022-09-12T02:50:26.549Z,10.06
2022-09-12T03:00:39.130Z,10.19
2022-09-12T03:10:58.025Z,10.27
2022-09-12T03:21:07.500Z,10.16
2022-09-12T03:31:16.899Z,9.99
2022-09-12T03:41:23.019Z,9.80
2022-09-12T03:51:30.370Z,9.66
2022-09-12T04:01:37.112Z,9.62
2022-09-12T04:11:44.595Z,9.60
2022-09-12T04:21:51.908Z,9.67
2022-09-12T04:31:59.428Z,9.78
2022-09-12T04:42:04.801Z,9.92
2022-09-12T04:52:12.088Z,10.04
2022-09-12T05:02:19.339Z,10.22
2022-09-12T05:12:25.608Z,10.44
2022-09-12T05:22:33.244Z,10.88
2022-09-12T05:32:39.655Z,11.76
2022-09-12T05:42:47.019Z,12.24
2022-09-12T05:52:55.223Z,12.07
2022-09-12T06:03:02.554Z,12.07
2022-09-12T06:13:09.785Z,12.45
2022-09-12T06:23:16.959Z,12.77
2022-09-12T06:33:24.167Z,13.17
2022-09-12T06:43:31.383Z,13.60
2022-09-12T06:53:39.175Z,14.06
2022-09-12T07:03:50.856Z,14.55
2022-09-12T07:13:59.226Z,14.78
2022-09-12T07:24:05.705Z,15.31
2022-09-12T07:34:14.222Z,15.38
2022-09-12T07:44:20.575Z,15.31
2022-09-12T07:54:27.986Z,15.54
2022-09-12T08:04:36.692Z,15.63
2022-09-12T08:14:42.385Z,16.08
2022-09-12T08:24:50.026Z,15.58
2022-09-12T08:34:57.239Z,15.91
2022-09-12T08:45:15.156Z,16.14
2022-09-12T08:55:31.324Z,15.96
2022-09-12T09:05:47.448Z,16.13
2022-09-12T09:16:01.884Z,16.71
2022-09-12T09:26:14.716Z,16.35
2022-09-12T09:36:19.758Z,16.92
2022-09-12T09:46:26.414Z,17.24
2022-09-12T09:56:34.588Z,17.53
2022-09-12T10:06:42.858Z,17.52
2022-09-12T10:16:54.322Z,17.34
2022-09-12T10:27:08.460Z,17.36
2022-09-12T10:37:19.542Z,17.90
2022-09-12T10:47:32.839Z,17.84
2022-09-12T10:57:51.344Z,17.57
2022-09-12T11:08:02.778Z,17.44
2022-09-12T11:18:16.448Z,17.61
2022-09-12T11:28:25.510Z,17.89
2022-09-12T11:38:52.473Z,17.72
2022-09-12T11:49:01.187Z,17.43
2022-09-12T11:59:18.839Z,17.62
2022-09-12T12:09:26.280Z,17.18
2022-09-12T12:19:34.011Z,17.26
2022-09-12T12:29:44.189Z,17.06
2022-09-12T12:40:01.651Z,17.26
2022-09-12T12:50:23.763Z,17.60
2022-09-12T13:00:39.941Z,17.60
2022-09-12T13:10:50.328Z,17.63
2022-09-12T13:21:01.464Z,18.02
2022-09-12T13:31:09.147Z,18.25
2022-09-12T13:41:31.700Z,18.35
2022-09-12T13:51:39.449Z,18.29
2022-09-12T14:01:48.490Z,18.11
2022-09-12T14:11:56.219Z,17.92
2022-09-12T14:22:02.593Z,17.94
2022-09-12T14:32:23.048Z,17.85
2022-09-12T14:42:34.361Z,17.72
2022-09-12T14:52:41.899Z,17.47
2022-09-12T15:02:47.997Z,17.33
2022-09-12T15:13:06.252Z,17.30
2022-09-12T15:23:17.405Z,17.01
2022-09-12T15:33:25.850Z,16.59
2022-09-12T15:43:33.060Z,16.40
2022-09-12T15:53:40.842Z,16.27
2022-09-12T16:03:49.011Z,16.34
2022-09-12T16:13:56.444Z,16.41
2022-09-12T16:24:04.060Z,16.48
2022-09-12T16:34:11.580Z,16.38
2022-09-12T16:44:18.840Z,16.22
2022-09-12T16:54:24.939Z,16.09
2022-09-12T17:04:32.372Z,15.82
2022-09-12T17:14:39.666Z,15.51
2022-09-12T17:24:46.955Z,15.15
2022-09-12T17:34:54.582Z,14.88
2022-09-12T17:45:01.922Z,14.48
2022-09-12T18:05:17.557Z,13.88
2022-09-12T18:15:24.696Z,13.70
2022-09-12T18:25:32.080Z,13.45
2022-09-12T18:35:39.224Z,12.95
2022-09-12T18:45:46.468Z,12.64
2022-09-12T18:55:54.287Z,12.42
2022-09-12T19:06:01.602Z,12.26
2022-09-12T19:16:11.847Z,12.18
2022-09-12T19:26:21.417Z,12.01
2022-09-12T19:36:46.362Z,11.89
2022-09-12T19:46:55.365Z,11.65
2022-09-12T19:57:02.544Z,11.54
2022-09-12T20:07:10.310Z,11.45
2022-09-12T20:17:17.510Z,11.45
2022-09-12T20:27:25.013Z,11.51
2022-09-12T20:37:32.262Z,11.52
2022-09-12T20:47:39.571Z,11.51
2022-09-12T20:57:50.534Z,11.58
2022-09-12T21:07:57.626Z,11.61
2022-09-12T21:18:04.820Z,11.67
2022-09-12T21:28:12.340Z,11.57
2022-09-12T21:38:20.755Z,11.46
2022-09-12T21:48:28.479Z,11.43
2022-09-12T21:58:35.789Z,11.46
2022-09-12T22:08:44.063Z,11.40
2022-09-12T22:18:50.902Z,11.37
2022-09-12T22:28:58.635Z,11.25
2022-09-12T22:39:06.140Z,11.11
2022-09-12T22:49:13.995Z,11.06
2022-09-12T22:59:20.669Z,11.01
2022-09-12T23:09:32.054Z,10.94
2022-09-12T23:19:42.193Z,10.76
2022-09-12T23:29:52.636Z,10.66
2022-09-12T23:39:59.879Z,10.61
2022-09-12T23:50:08.345Z,10.64
